sensor_id;sensor_type;location;lat;lon;timestamp;P1;durP1;ratioP1;P2;durP2;ratioP2
9771;SDS011;4925;52.588;13.370;2023-06-22T00:00:54;10.25;;;9.32;;
9771;SDS011;4925;52.588;13.370;2023-06-22T00:03:21;11.00;;;9.95;;
9771;SDS011;4925;52.588;13.370;2023-06-22T00:05:47;9.88;;;9.07;;
9771;SDS011;4925;52.588;13.370;2023-06-22T00:08:13;9.52;;;8.70;;
9771;SDS011;4925;52.588;13.370;2023-06-22T00:10:39;10.63;;;9.73;;
9771;SDS011;4925;52.588;13.370;2023-06-22T00:13:06;11.77;;;9.85;;
9771;SDS011;4925;52.588;13.370;2023-06-22T00:15:33;10.52;;;9.52;;
9771;SDS011;4925;52.588;13.370;2023-06-22T00:17:59;10.45;;;9.45;;
9771;SDS011;4925;52.588;13.370;2023-06-22T00:20:28;11.23;;;9.77;;
9771;SDS011;4925;52.588;13.370;2023-06-22T00:22:55;11.90;;;10.38;;
9771;SDS011;4925;52.588;13.370;2023-06-22T00:25:21;10.40;;;9.50;;
9771;SDS011;4925;52.588;13.370;2023-06-22T00:27:47;11.00;;;10.02;;
9771;SDS011;4925;52.588;13.370;2023-06-22T00:30:15;10.50;;;9.60;;
9771;SDS011;4925;52.588;13.370;2023-06-22T00:32:41;9.75;;;8.85;;
9771;SDS011;4925;52.588;13.370;2023-06-22T00:35:07;9.88;;;8.77;;
9771;SDS011;4925;52.588;13.370;2023-06-22T00:37:34;9.88;;;8.98;;
9771;SDS011;4925;52.588;13.370;2023-06-22T00:40:01;10.48;;;9.02;;
9771;SDS011;4925;52.588;13.370;2023-06-22T00:42:27;10.07;;;9.07;;
9771;SDS011;4925;52.588;13.370;2023-06-22T00:44:53;10.32;;;9.20;;
9771;SDS011;4925;52.588;13.370;2023-06-22T00:47:19;10.20;;;9.38;;
9771;SDS011;4925;52.588;13.370;2023-06-22T00:49:45;10.57;;;9.52;;
9771;SDS011;4925;52.588;13.370;2023-06-22T00:52:16;9.93;;;9.10;;
9771;SDS011;4925;52.588;13.370;2023-06-22T00:54:45;11.32;;;10.23;;
9771;SDS011;4925;52.588;13.370;2023-06-22T00:57:14;10.85;;;9.77;;
9771;SDS011;4925;52.588;13.370;2023-06-22T00:59:46;10.65;;;9.55;;
9771;SDS011;4925;52.588;13.370;2023-06-22T01:02:13;10.60;;;9.65;;
9771;SDS011;4925;52.588;13.370;2023-06-22T01:04:40;10.93;;;9.90;;
9771;SDS011;4925;52.588;13.370;2023-06-22T01:12:56;9.80;;;8.88;;
9771;SDS011;4925;52.588;13.370;2023-06-22T01:15:42;9.63;;;8.63;;
9771;SDS011;4925;52.588;13.370;2023-06-22T01:18:11;11.18;;;9.10;;
9771;SDS011;4925;52.588;13.370;2023-06-22T01:20:39;9.77;;;8.80;;
9771;SDS011;4925;52.588;13.370;2023-06-22T01:31:18;10.95;;;9.77;;
9771;SDS011;4925;52.588;13.370;2023-06-22T01:33:48;10.23;;;8.93;;
9771;SDS011;4925;52.588;13.370;2023-06-22T01:36:20;10.30;;;9.20;;
9771;SDS011;4925;52.588;13.370;2023-06-22T01:38:48;11.57;;;9.75;;
9771;SDS011;4925;52.588;13.370;2023-06-22T01:41:14;11.88;;;10.07;;
9771;SDS011;4925;52.588;13.370;2023-06-22T01:43:42;10.82;;;9.73;;
9771;SDS011;4925;52.588;13.370;2023-06-22T01:46:08;11.00;;;10.05;;
9771;SDS011;4925;52.588;13.370;2023-06-22T01:48:36;10.65;;;9.68;;
9771;SDS011;4925;52.588;13.370;2023-06-22T01:51:03;11.00;;;10.00;;
9771;SDS011;4925;52.588;13.370;2023-06-22T01:53:28;11.18;;;10.07;;
9771;SDS011;4925;52.588;13.370;2023-06-22T01:55:54;10.10;;;9.07;;
9771;SDS011;4925;52.588;13.370;2023-06-22T01:58:22;12.13;;;9.68;;
9771;SDS011;4925;52.588;13.370;2023-06-22T02:00:53;10.82;;;9.82;;
9771;SDS011;4925;52.588;13.370;2023-06-22T02:03:34;11.30;;;10.23;;
9771;SDS011;4925;52.588;13.370;2023-06-22T02:06:23;11.57;;;8.88;;
9771;SDS011;4925;52.588;13.370;2023-06-22T02:08:57;11.25;;;10.18;;
9771;SDS011;4925;52.588;13.370;2023-06-22T02:11:26;12.70;;;11.25;;
9771;SDS011;4925;52.588;13.370;2023-06-22T02:13:52;10.77;;;9.85;;
9771;SDS011;4925;52.588;13.370;2023-06-22T02:16:19;11.77;;;10.55;;
9771;SDS011;4925;52.588;13.370;2023-06-22T02:18:46;11.40;;;10.30;;
9771;SDS011;4925;52.588;13.370;2023-06-22T02:21:12;9.30;;;8.50;;
9771;SDS011;4925;52.588;13.370;2023-06-22T02:23:39;11.10;;;9.27;;
9771;SDS011;4925;52.588;13.370;2023-06-22T02:26:04;10.18;;;9.18;;
9771;SDS011;4925;52.588;13.370;2023-06-22T02:28:30;10.18;;;9.25;;
9771;SDS011;4925;52.588;13.370;2023-06-22T02:30:56;10.85;;;9.50;;
9771;SDS011;4925;52.588;13.370;2023-06-22T02:33:21;10.40;;;9.23;;
9771;SDS011;4925;52.588;13.370;2023-06-22T02:35:47;10.73;;;9.68;;
9771;SDS011;4925;52.588;13.370;2023-06-22T02:38:14;10.63;;;9.73;;
9771;SDS011;4925;52.588;13.370;2023-06-22T02:40:39;11.30;;;10.20;;
9771;SDS011;4925;52.588;13.370;2023-06-22T02:43:06;10.95;;;9.80;;
9771;SDS011;4925;52.588;13.370;2023-06-22T02:45:32;10.35;;;9.20;;
9771;SDS011;4925;52.588;13.370;2023-06-22T02:47:58;10.00;;;9.00;;
9771;SDS011;4925;52.588;13.370;2023-06-22T02:50:23;10.00;;;9.20;;
9771;SDS011;4925;52.588;13.370;2023-06-22T02:52:49;10.18;;;8.98;;
9771;SDS011;4925;52.588;13.370;2023-06-22T02:55:15;9.23;;;8.38;;
9771;SDS011;4925;52.588;13.370;2023-06-22T02:57:40;9.63;;;8.73;;
9771;SDS011;4925;52.588;13.370;2023-06-22T03:00:09;13.35;;;10.35;;
9771;SDS011;4925;52.588;13.370;2023-06-22T03:02:55;11.48;;;10.32;;
9771;SDS011;4925;52.588;13.370;2023-06-22T03:05:22;10.18;;;9.25;;
9771;SDS011;4925;52.588;13.370;2023-06-22T03:07:48;11.77;;;10.25;;
9771;SDS011;4925;52.588;13.370;2023-06-22T03:10:14;10.68;;;9.68;;
9771;SDS011;4925;52.588;13.370;2023-06-22T03:12:40;11.80;;;10.35;;
9771;SDS011;4925;52.588;13.370;2023-06-22T03:15:07;11.20;;;10.07;;
9771;SDS011;4925;52.588;13.370;2023-06-22T03:17:37;11.65;;;9.88;;
9771;SDS011;4925;52.588;13.370;2023-06-22T03:20:05;12.00;;;10.00;;
9771;SDS011;4925;52.588;13.370;2023-06-22T03:22:35;15.63;;;10.65;;
9771;SDS011;4925;52.588;13.370;2023-06-22T03:25:02;18.00;;;10.50;;
9771;SDS011;4925;52.588;13.370;2023-06-22T03:27:28;11.43;;;10.35;;
9771;SDS011;4925;52.588;13.370;2023-06-22T03:29:53;13.50;;;12.20;;
9771;SDS011;4925;52.588;13.370;2023-06-22T03:32:19;12.40;;;11.13;;
9771;SDS011;4925;52.588;13.370;2023-06-22T03:34:45;17.00;;;12.55;;
9771;SDS011;4925;52.588;13.370;2023-06-22T03:37:13;13.20;;;11.90;;
9771;SDS011;4925;52.588;13.370;2023-06-22T03:39:40;12.52;;;11.13;;
9771;SDS011;4925;52.588;13.370;2023-06-22T03:42:06;13.27;;;11.85;;
9771;SDS011;4925;52.588;13.370;2023-06-22T03:44:32;13.73;;;12.32;;
9771;SDS011;4925;52.588;13.370;2023-06-22T03:46:58;13.18;;;11.27;;
9771;SDS011;4925;52.588;13.370;2023-06-22T03:49:23;13.25;;;11.63;;
9771;SDS011;4925;52.588;13.370;2023-06-22T03:51:49;15.07;;;11.75;;
9771;SDS011;4925;52.588;13.370;2023-06-22T03:54:15;14.65;;;12.07;;
9771;SDS011;4925;52.588;13.370;2023-06-22T03:56:40;13.07;;;11.68;;
9771;SDS011;4925;52.588;13.370;2023-06-22T03:59:06;15.88;;;12.85;;
9771;SDS011;4925;52.588;13.370;2023-06-22T04:01:32;12.13;;;11.02;;
9771;SDS011;4925;52.588;13.370;2023-06-22T04:03:57;13.65;;;11.68;;
9771;SDS011;4925;52.588;13.370;2023-06-22T04:06:23;16.70;;;11.70;;
9771;SDS011;4925;52.588;13.370;2023-06-22T04:08:49;15.82;;;12.48;;
9771;SDS011;4925;52.588;13.370;2023-06-22T04:11:18;14.27;;;11.70;;
9771;SDS011;4925;52.588;13.370;2023-06-22T04:13:43;15.73;;;13.07;;
9771;SDS011;4925;52.588;13.370;2023-06-22T04:16:09;13.30;;;11.60;;
9771;SDS011;4925;52.588;13.370;2023-06-22T04:18:35;13.73;;;12.18;;
9771;SDS011;4925;52.588;13.370;2023-06-22T04:21:01;12.43;;;11.27;;
9771;SDS011;4925;52.588;13.370;2023-06-22T04:23:27;13.63;;;12.30;;
9771;SDS011;4925;52.588;13.370;2023-06-22T04:25:53;12.95;;;11.60;;
9771;SDS011;4925;52.588;13.370;2023-06-22T04:28:21;14.02;;;11.45;;
9771;SDS011;4925;52.588;13.370;2023-06-22T04:30:47;12.07;;;10.93;;
9771;SDS011;4925;52.588;13.370;2023-06-22T04:33:16;12.40;;;11.30;;
9771;SDS011;4925;52.588;13.370;2023-06-22T04:35:44;15.02;;;10.98;;
9771;SDS011;4925;52.588;13.370;2023-06-22T04:38:11;13.50;;;11.25;;
9771;SDS011;4925;52.588;13.370;2023-06-22T04:40:38;13.27;;;11.63;;
9771;SDS011;4925;52.588;13.370;2023-06-22T04:43:04;16.55;;;11.02;;
9771;SDS011;4925;52.588;13.370;2023-06-22T04:45:31;14.38;;;11.18;;
9771;SDS011;4925;52.588;13.370;2023-06-22T04:48:02;12.05;;;10.70;;
9771;SDS011;4925;52.588;13.370;2023-06-22T04:50:29;11.40;;;10.20;;
9771;SDS011;4925;52.588;13.370;2023-06-22T04:52:54;11.77;;;10.25;;
9771;SDS011;4925;52.588;13.370;2023-06-22T04:55:20;13.25;;;9.50;;
9771;SDS011;4925;52.588;13.370;2023-06-22T04:57:46;9.82;;;9.02;;
9771;SDS011;4925;52.588;13.370;2023-06-22T05:02:48;9.23;;;8.32;;
9771;SDS011;4925;52.588;13.370;2023-06-22T05:05:14;11.55;;;9.45;;
9771;SDS011;4925;52.588;13.370;2023-06-22T05:07:44;11.02;;;8.35;;
9771;SDS011;4925;52.588;13.370;2023-06-22T05:10:15;10.43;;;8.05;;
9771;SDS011;4925;52.588;13.370;2023-06-22T05:12:41;9.63;;;7.00;;
9771;SDS011;4925;52.588;13.370;2023-06-22T05:15:07;11.60;;;7.35;;
9771;SDS011;4925;52.588;13.370;2023-06-22T05:17:34;10.88;;;7.13;;
9771;SDS011;4925;52.588;13.370;2023-06-22T05:20:00;8.20;;;6.55;;
9771;SDS011;4925;52.588;13.370;2023-06-22T05:22:26;9.35;;;6.72;;
9771;SDS011;4925;52.588;13.370;2023-06-22T05:24:52;10.13;;;6.40;;
9771;SDS011;4925;52.588;13.370;2023-06-22T05:27:18;9.15;;;6.43;;
9771;SDS011;4925;52.588;13.370;2023-06-22T05:29:44;10.13;;;6.70;;
9771;SDS011;4925;52.588;13.370;2023-06-22T05:32:09;8.32;;;6.25;;
9771;SDS011;4925;52.588;13.370;2023-06-22T05:34:35;9.35;;;5.85;;
9771;SDS011;4925;52.588;13.370;2023-06-22T05:37:01;7.88;;;4.75;;
9771;SDS011;4925;52.588;13.370;2023-06-22T05:39:27;7.03;;;5.22;;
9771;SDS011;4925;52.588;13.370;2023-06-22T05:41:53;6.00;;;4.88;;
9771;SDS011;4925;52.588;13.370;2023-06-22T05:44:18;4.75;;;4.35;;
9771;SDS011;4925;52.588;13.370;2023-06-22T05:46:44;4.35;;;3.88;;
9771;SDS011;4925;52.588;13.370;2023-06-22T05:49:12;5.43;;;4.63;;
9771;SDS011;4925;52.588;13.370;2023-06-22T05:51:38;7.32;;;3.97;;
9771;SDS011;4925;52.588;13.370;2023-06-22T05:54:03;5.05;;;3.17;;
9771;SDS011;4925;52.588;13.370;2023-06-22T05:56:29;4.07;;;3.67;;
9771;SDS011;4925;52.588;13.370;2023-06-22T05:58:55;4.72;;;3.50;;
9771;SDS011;4925;52.588;13.370;2023-06-22T06:01:30;4.32;;;3.45;;
9771;SDS011;4925;52.588;13.370;2023-06-22T06:03:59;10.82;;;5.22;;
9771;SDS011;4925;52.588;13.370;2023-06-22T06:06:25;7.97;;;4.22;;
9771;SDS011;4925;52.588;13.370;2023-06-22T06:08:53;4.97;;;3.45;;
9771;SDS011;4925;52.588;13.370;2023-06-22T06:11:19;3.10;;;2.78;;
9771;SDS011;4925;52.588;13.370;2023-06-22T06:13:45;4.07;;;2.90;;
9771;SDS011;4925;52.588;13.370;2023-06-22T06:16:10;6.57;;;3.33;;
9771;SDS011;4925;52.588;13.370;2023-06-22T06:18:36;3.70;;;3.40;;
9771;SDS011;4925;52.588;13.370;2023-06-22T06:21:02;3.55;;;3.00;;
9771;SDS011;4925;52.588;13.370;2023-06-22T06:23:28;9.98;;;3.63;;
9771;SDS011;4925;52.588;13.370;2023-06-22T06:25:53;3.80;;;3.40;;
9771;SDS011;4925;52.588;13.370;2023-06-22T06:28:19;5.57;;;4.55;;
9771;SDS011;4925;52.588;13.370;2023-06-22T06:30:45;3.75;;;3.20;;
9771;SDS011;4925;52.588;13.370;2023-06-22T06:33:12;7.32;;;3.70;;
9771;SDS011;4925;52.588;13.370;2023-06-22T06:35:38;6.53;;;4.13;;
9771;SDS011;4925;52.588;13.370;2023-06-22T06:38:03;4.10;;;3.67;;
9771;SDS011;4925;52.588;13.370;2023-06-22T06:40:29;5.35;;;3.85;;
9771;SDS011;4925;52.588;13.370;2023-06-22T06:42:55;3.58;;;3.17;;
9771;SDS011;4925;52.588;13.370;2023-06-22T06:45:21;5.80;;;4.43;;
9771;SDS011;4925;52.588;13.370;2023-06-22T06:47:48;8.95;;;3.70;;
9771;SDS011;4925;52.588;13.370;2023-06-22T06:50:15;3.97;;;3.20;;
9771;SDS011;4925;52.588;13.370;2023-06-22T06:52:41;4.70;;;3.60;;
9771;SDS011;4925;52.588;13.370;2023-06-22T06:55:07;8.45;;;3.38;;
9771;SDS011;4925;52.588;13.370;2023-06-22T06:57:36;4.47;;;3.65;;
9771;SDS011;4925;52.588;13.370;2023-06-22T07:00:04;5.65;;;3.83;;
9771;SDS011;4925;52.588;13.370;2023-06-22T07:02:39;3.60;;;3.22;;
9771;SDS011;4925;52.588;13.370;2023-06-22T07:05:06;5.72;;;3.78;;
9771;SDS011;4925;52.588;13.370;2023-06-22T07:07:32;3.03;;;2.80;;
9771;SDS011;4925;52.588;13.370;2023-06-22T07:09:58;3.65;;;3.13;;
9771;SDS011;4925;52.588;13.370;2023-06-22T07:12:24;3.25;;;2.95;;
9771;SDS011;4925;52.588;13.370;2023-06-22T07:14:51;2.85;;;2.63;;
9771;SDS011;4925;52.588;13.370;2023-06-22T07:17:17;7.40;;;2.90;;
9771;SDS011;4925;52.588;13.370;2023-06-22T07:19:43;5.72;;;3.25;;
9771;SDS011;4925;52.588;13.370;2023-06-22T07:22:09;3.90;;;3.15;;
9771;SDS011;4925;52.588;13.370;2023-06-22T07:24:34;9.18;;;3.92;;
9771;SDS011;4925;52.588;13.370;2023-06-22T07:27:00;3.17;;;2.90;;
9771;SDS011;4925;52.588;13.370;2023-06-22T07:29:27;4.80;;;3.45;;
9771;SDS011;4925;52.588;13.370;2023-06-22T07:31:53;5.43;;;2.72;;
9771;SDS011;4925;52.588;13.370;2023-06-22T07:34:21;3.42;;;3.13;;
9771;SDS011;4925;52.588;13.370;2023-06-22T07:36:46;5.20;;;3.40;;
9771;SDS011;4925;52.588;13.370;2023-06-22T07:39:12;4.95;;;3.42;;
9771;SDS011;4925;52.588;13.370;2023-06-22T07:41:38;3.45;;;2.95;;
9771;SDS011;4925;52.588;13.370;2023-06-22T07:44:07;4.72;;;2.75;;
9771;SDS011;4925;52.588;13.370;2023-06-22T07:46:33;9.07;;;4.07;;
9771;SDS011;4925;52.588;13.370;2023-06-22T07:48:59;3.15;;;2.85;;
9771;SDS011;4925;52.588;13.370;2023-06-22T07:51:25;4.43;;;3.08;;
9771;SDS011;4925;52.588;13.370;2023-06-22T07:53:50;3.08;;;2.80;;
9771;SDS011;4925;52.588;13.370;2023-06-22T07:56:16;3.55;;;2.90;;
9771;SDS011;4925;52.588;13.370;2023-06-22T07:58:46;3.47;;;2.95;;
9771;SDS011;4925;52.588;13.370;2023-06-22T08:01:13;4.00;;;2.72;;
9771;SDS011;4925;52.588;13.370;2023-06-22T08:03:39;4.63;;;3.08;;
9771;SDS011;4925;52.588;13.370;2023-06-22T08:06:05;5.63;;;3.45;;
9771;SDS011;4925;52.588;13.370;2023-06-22T08:08:34;4.25;;;3.00;;
9771;SDS011;4925;52.588;13.370;2023-06-22T08:11:02;3.13;;;2.75;;
9771;SDS011;4925;52.588;13.370;2023-06-22T08:13:28;7.00;;;3.00;;
9771;SDS011;4925;52.588;13.370;2023-06-22T08:15:54;3.00;;;2.80;;
9771;SDS011;4925;52.588;13.370;2023-06-22T08:18:19;6.30;;;3.00;;
9771;SDS011;4925;52.588;13.370;2023-06-22T08:20:45;4.18;;;2.75;;
9771;SDS011;4925;52.588;13.370;2023-06-22T08:23:11;2.83;;;2.60;;
9771;SDS011;4925;52.588;13.370;2023-06-22T08:25:37;6.20;;;2.55;;
9771;SDS011;4925;52.588;13.370;2023-06-22T08:28:03;3.42;;;2.72;;
9771;SDS011;4925;52.588;13.370;2023-06-22T08:30:29;2.97;;;2.55;;
9771;SDS011;4925;52.588;13.370;2023-06-22T08:32:55;4.70;;;2.95;;
9771;SDS011;4925;52.588;13.370;2023-06-22T08:35:24;3.75;;;2.42;;
9771;SDS011;4925;52.588;13.370;2023-06-22T08:37:50;3.10;;;2.65;;
9771;SDS011;4925;52.588;13.370;2023-06-22T08:40:19;4.80;;;3.17;;
9771;SDS011;4925;52.588;13.370;2023-06-22T08:42:46;3.13;;;2.85;;
9771;SDS011;4925;52.588;13.370;2023-06-22T08:45:12;4.70;;;2.90;;
9771;SDS011;4925;52.588;13.370;2023-06-22T08:47:39;3.08;;;2.78;;
9771;SDS011;4925;52.588;13.370;2023-06-22T08:50:06;3.63;;;2.88;;
9771;SDS011;4925;52.588;13.370;2023-06-22T08:52:33;6.13;;;3.30;;
9771;SDS011;4925;52.588;13.370;2023-06-22T08:55:00;3.15;;;2.20;;
9771;SDS011;4925;52.588;13.370;2023-06-22T08:57:26;5.75;;;2.78;;
9771;SDS011;4925;52.588;13.370;2023-06-22T08:59:52;4.40;;;2.67;;
9771;SDS011;4925;52.588;13.370;2023-06-22T09:02:18;2.92;;;2.70;;
9771;SDS011;4925;52.588;13.370;2023-06-22T09:04:45;3.95;;;2.80;;
9771;SDS011;4925;52.588;13.370;2023-06-22T09:07:11;3.30;;;2.70;;
9771;SDS011;4925;52.588;13.370;2023-06-22T09:09:37;4.18;;;2.45;;
9771;SDS011;4925;52.588;13.370;2023-06-22T09:12:02;3.00;;;2.65;;
9771;SDS011;4925;52.588;13.370;2023-06-22T09:14:29;3.55;;;2.60;;
9771;SDS011;4925;52.588;13.370;2023-06-22T09:16:54;7.03;;;2.83;;
9771;SDS011;4925;52.588;13.370;2023-06-22T09:19:20;4.13;;;2.83;;
9771;SDS011;4925;52.588;13.370;2023-06-22T09:21:46;4.47;;;2.80;;
9771;SDS011;4925;52.588;13.370;2023-06-22T09:24:11;3.75;;;3.00;;
9771;SDS011;4925;52.588;13.370;2023-06-22T09:26:37;3.15;;;2.90;;
9771;SDS011;4925;52.588;13.370;2023-06-22T09:29:04;3.15;;;2.95;;
9771;SDS011;4925;52.588;13.370;2023-06-22T09:31:31;3.22;;;2.97;;
9771;SDS011;4925;52.588;13.370;2023-06-22T09:33:56;5.45;;;3.53;;
9771;SDS011;4925;52.588;13.370;2023-06-22T09:36:22;3.22;;;2.92;;
9771;SDS011;4925;52.588;13.370;2023-06-22T09:38:48;5.03;;;3.70;;
9771;SDS011;4925;52.588;13.370;2023-06-22T09:41:20;5.47;;;3.45;;
9771;SDS011;4925;52.588;13.370;2023-06-22T09:43:45;3.85;;;3.55;;
9771;SDS011;4925;52.588;13.370;2023-06-22T09:46:11;8.57;;;3.33;;
9771;SDS011;4925;52.588;13.370;2023-06-22T09:48:37;3.15;;;2.95;;
9771;SDS011;4925;52.588;13.370;2023-06-22T09:51:02;8.25;;;3.55;;
9771;SDS011;4925;52.588;13.370;2023-06-22T09:53:28;6.38;;;3.50;;
9771;SDS011;4925;52.588;13.370;2023-06-22T09:55:54;3.30;;;3.10;;
9771;SDS011;4925;52.588;13.370;2023-06-22T09:58:19;5.28;;;3.58;;
9771;SDS011;4925;52.588;13.370;2023-06-22T10:00:45;6.20;;;3.42;;
9771;SDS011;4925;52.588;13.370;2023-06-22T10:03:11;4.30;;;3.22;;
9771;SDS011;4925;52.588;13.370;2023-06-22T10:05:37;5.38;;;3.25;;
9771;SDS011;4925;52.588;13.370;2023-06-22T10:08:02;5.95;;;3.15;;
9771;SDS011;4925;52.588;13.370;2023-06-22T10:10:28;3.50;;;3.20;;
9771;SDS011;4925;52.588;13.370;2023-06-22T10:12:55;4.72;;;3.80;;
9771;SDS011;4925;52.588;13.370;2023-06-22T10:15:22;4.07;;;3.58;;
9771;SDS011;4925;52.588;13.370;2023-06-22T10:17:48;3.60;;;3.33;;
9771;SDS011;4925;52.588;13.370;2023-06-22T10:20:14;4.50;;;3.60;;
9771;SDS011;4925;52.588;13.370;2023-06-22T10:22:41;5.43;;;3.40;;
9771;SDS011;4925;52.588;13.370;2023-06-22T10:25:08;6.30;;;3.50;;
9771;SDS011;4925;52.588;13.370;2023-06-22T10:27:34;3.63;;;3.33;;
9771;SDS011;4925;52.588;13.370;2023-06-22T10:30:00;6.50;;;4.00;;
9771;SDS011;4925;52.588;13.370;2023-06-22T10:32:26;3.70;;;3.50;;
9771;SDS011;4925;52.588;13.370;2023-06-22T10:34:53;5.80;;;3.70;;
9771;SDS011;4925;52.588;13.370;2023-06-22T10:37:19;5.60;;;3.65;;
9771;SDS011;4925;52.588;13.370;2023-06-22T10:39:45;3.42;;;3.13;;
9771;SDS011;4925;52.588;13.370;2023-06-22T10:42:11;3.53;;;3.20;;
9771;SDS011;4925;52.588;13.370;2023-06-22T10:44:37;6.57;;;3.67;;
9771;SDS011;4925;52.588;13.370;2023-06-22T10:47:04;4.45;;;3.03;;
9771;SDS011;4925;52.588;13.370;2023-06-22T10:49:30;6.95;;;4.70;;
9771;SDS011;4925;52.588;13.370;2023-06-22T10:51:55;4.85;;;4.18;;
9771;SDS011;4925;52.588;13.370;2023-06-22T10:54:21;3.75;;;3.45;;
9771;SDS011;4925;52.588;13.370;2023-06-22T10:56:47;3.63;;;3.33;;
9771;SDS011;4925;52.588;13.370;2023-06-22T10:59:13;6.30;;;3.70;;
9771;SDS011;4925;52.588;13.370;2023-06-22T11:01:38;3.45;;;3.00;;
9771;SDS011;4925;52.588;13.370;2023-06-22T11:04:04;3.63;;;3.42;;
9771;SDS011;4925;52.588;13.370;2023-06-22T11:06:30;4.13;;;3.35;;
9771;SDS011;4925;52.588;13.370;2023-06-22T11:08:55;3.40;;;3.20;;
9771;SDS011;4925;52.588;13.370;2023-06-22T11:11:21;4.10;;;3.15;;
9771;SDS011;4925;52.588;13.370;2023-06-22T11:13:47;5.03;;;3.60;;
9771;SDS011;4925;52.588;13.370;2023-06-22T11:16:12;4.28;;;3.78;;
9771;SDS011;4925;52.588;13.370;2023-06-22T11:18:38;4.35;;;3.97;;
9771;SDS011;4925;52.588;13.370;2023-06-22T11:21:04;3.88;;;3.63;;
9771;SDS011;4925;52.588;13.370;2023-06-22T11:23:29;3.97;;;3.65;;
9771;SDS011;4925;52.588;13.370;2023-06-22T11:25:55;3.20;;;2.97;;
9771;SDS011;4925;52.588;13.370;2023-06-22T11:28:21;3.92;;;3.60;;
9771;SDS011;4925;52.588;13.370;2023-06-22T11:30:46;3.42;;;3.13;;
9771;SDS011;4925;52.588;13.370;2023-06-22T11:33:12;3.90;;;3.60;;
9771;SDS011;4925;52.588;13.370;2023-06-22T11:35:38;4.47;;;3.20;;
9771;SDS011;4925;52.588;13.370;2023-06-22T11:38:03;5.03;;;3.28;;
9771;SDS011;4925;52.588;13.370;2023-06-22T11:40:30;3.75;;;3.40;;
9771;SDS011;4925;52.588;13.370;2023-06-22T11:42:56;4.47;;;4.07;;
9771;SDS011;4925;52.588;13.370;2023-06-22T11:45:21;3.85;;;3.55;;
9771;SDS011;4925;52.588;13.370;2023-06-22T11:47:47;3.70;;;3.40;;
9771;SDS011;4925;52.588;13.370;2023-06-22T11:50:13;4.57;;;4.10;;
9771;SDS011;4925;52.588;13.370;2023-06-22T11:52:39;3.70;;;3.40;;
9771;SDS011;4925;52.588;13.370;2023-06-22T11:55:04;7.53;;;4.38;;
9771;SDS011;4925;52.588;13.370;2023-06-22T11:57:38;4.28;;;3.97;;
9771;SDS011;4925;52.588;13.370;2023-06-22T12:00:17;3.95;;;3.60;;
9771;SDS011;4925;52.588;13.370;2023-06-22T12:02:44;3.97;;;3.53;;
9771;SDS011;4925;52.588;13.370;2023-06-22T12:05:12;3.85;;;3.65;;
9771;SDS011;4925;52.588;13.370;2023-06-22T12:07:38;5.78;;;4.07;;
9771;SDS011;4925;52.588;13.370;2023-06-22T12:10:04;5.70;;;4.40;;
9771;SDS011;4925;52.588;13.370;2023-06-22T12:12:30;6.90;;;5.20;;
9771;SDS011;4925;52.588;13.370;2023-06-22T12:14:55;4.30;;;3.97;;
9771;SDS011;4925;52.588;13.370;2023-06-22T12:17:21;4.30;;;4.00;;
9771;SDS011;4925;52.588;13.370;2023-06-22T12:19:46;4.53;;;4.18;;
9771;SDS011;4925;52.588;13.370;2023-06-22T12:22:12;5.22;;;4.57;;
9771;SDS011;4925;52.588;13.370;2023-06-22T12:24:38;7.15;;;4.35;;
9771;SDS011;4925;52.588;13.370;2023-06-22T12:27:04;4.70;;;4.40;;
9771;SDS011;4925;52.588;13.370;2023-06-22T12:29:29;4.40;;;4.05;;
9771;SDS011;4925;52.588;13.370;2023-06-22T12:31:55;4.25;;;3.95;;
9771;SDS011;4925;52.588;13.370;2023-06-22T12:34:21;5.53;;;4.88;;
9771;SDS011;4925;52.588;13.370;2023-06-22T12:36:47;4.63;;;4.18;;
9771;SDS011;4925;52.588;13.370;2023-06-22T12:39:13;5.05;;;4.57;;
9771;SDS011;4925;52.588;13.370;2023-06-22T12:41:39;6.20;;;4.20;;
9771;SDS011;4925;52.588;13.370;2023-06-22T12:44:05;5.00;;;4.40;;
9771;SDS011;4925;52.588;13.370;2023-06-22T12:46:31;5.07;;;4.25;;
9771;SDS011;4925;52.588;13.370;2023-06-22T12:49:02;5.00;;;4.60;;
9771;SDS011;4925;52.588;13.370;2023-06-22T12:51:29;5.47;;;4.57;;
9771;SDS011;4925;52.588;13.370;2023-06-22T12:53:54;5.60;;;5.20;;
9771;SDS011;4925;52.588;13.370;2023-06-22T12:56:20;4.88;;;4.57;;
9771;SDS011;4925;52.588;13.370;2023-06-22T12:58:46;5.05;;;4.57;;
9771;SDS011;4925;52.588;13.370;2023-06-22T13:01:11;6.05;;;4.88;;
9771;SDS011;4925;52.588;13.370;2023-06-22T13:03:37;5.13;;;4.70;;
9771;SDS011;4925;52.588;13.370;2023-06-22T13:06:03;4.82;;;4.40;;
9771;SDS011;4925;52.588;13.370;2023-06-22T13:08:28;4.97;;;4.30;;
9771;SDS011;4925;52.588;13.370;2023-06-22T13:10:54;5.18;;;4.78;;
9771;SDS011;4925;52.588;13.370;2023-06-22T13:13:23;4.72;;;4.43;;
9771;SDS011;4925;52.588;13.370;2023-06-22T13:15:55;5.05;;;4.75;;
9771;SDS011;4925;52.588;13.370;2023-06-22T13:18:20;4.40;;;4.10;;
9771;SDS011;4925;52.588;13.370;2023-06-22T13:20:46;4.78;;;4.45;;
9771;SDS011;4925;52.588;13.370;2023-06-22T13:23:12;4.68;;;4.28;;
9771;SDS011;4925;52.588;13.370;2023-06-22T13:25:37;7.75;;;5.20;;
9771;SDS011;4925;52.588;13.370;2023-06-22T13:28:04;5.82;;;5.32;;
9771;SDS011;4925;52.588;13.370;2023-06-22T13:30:29;5.28;;;4.78;;
9771;SDS011;4925;52.588;13.370;2023-06-22T13:32:56;4.90;;;4.50;;
9771;SDS011;4925;52.588;13.370;2023-06-22T13:35:22;4.75;;;4.35;;
9771;SDS011;4925;52.588;13.370;2023-06-22T13:37:48;4.95;;;4.55;;
9771;SDS011;4925;52.588;13.370;2023-06-22T13:40:14;6.32;;;5.72;;
9771;SDS011;4925;52.588;13.370;2023-06-22T13:42:39;4.82;;;4.47;;
9771;SDS011;4925;52.588;13.370;2023-06-22T13:45:06;5.13;;;4.80;;
9771;SDS011;4925;52.588;13.370;2023-06-22T13:47:32;5.25;;;4.75;;
9771;SDS011;4925;52.588;13.370;2023-06-22T13:49:58;4.85;;;4.25;;
9771;SDS011;4925;52.588;13.370;2023-06-22T13:52:24;4.72;;;4.43;;
9771;SDS011;4925;52.588;13.370;2023-06-22T13:54:50;4.60;;;4.25;;
9771;SDS011;4925;52.588;13.370;2023-06-22T13:57:15;4.25;;;4.05;;
9771;SDS011;4925;52.588;13.370;2023-06-22T13:59:41;4.70;;;4.30;;
9771;SDS011;4925;52.588;13.370;2023-06-22T14:02:08;5.47;;;4.45;;
9771;SDS011;4925;52.588;13.370;2023-06-22T14:04:34;7.47;;;4.78;;
9771;SDS011;4925;52.588;13.370;2023-06-22T14:07:00;5.30;;;4.78;;
9771;SDS011;4925;52.588;13.370;2023-06-22T14:09:25;4.65;;;4.35;;
9771;SDS011;4925;52.588;13.370;2023-06-22T14:11:51;5.55;;;4.97;;
9771;SDS011;4925;52.588;13.370;2023-06-22T14:14:18;5.13;;;4.72;;
9771;SDS011;4925;52.588;13.370;2023-06-22T14:16:44;5.03;;;4.63;;
9771;SDS011;4925;52.588;13.370;2023-06-22T14:19:10;5.65;;;5.15;;
9771;SDS011;4925;52.588;13.370;2023-06-22T14:21:35;5.22;;;4.65;;
9771;SDS011;4925;52.588;13.370;2023-06-22T14:24:01;6.85;;;4.88;;
9771;SDS011;4925;52.588;13.370;2023-06-22T14:26:27;5.15;;;4.75;;
9771;SDS011;4925;52.588;13.370;2023-06-22T14:28:52;4.55;;;4.22;;
9771;SDS011;4925;52.588;13.370;2023-06-22T14:31:19;6.55;;;4.80;;
9771;SDS011;4925;52.588;13.370;2023-06-22T14:33:48;7.07;;;6.05;;
9771;SDS011;4925;52.588;13.370;2023-06-22T14:36:15;5.15;;;4.78;;
9771;SDS011;4925;52.588;13.370;2023-06-22T14:38:42;5.20;;;4.68;;
9771;SDS011;4925;52.588;13.370;2023-06-22T14:41:08;6.95;;;5.03;;
9771;SDS011;4925;52.588;13.370;2023-06-22T14:43:35;5.03;;;4.70;;
9771;SDS011;4925;52.588;13.370;2023-06-22T14:46:00;5.25;;;4.35;;
9771;SDS011;4925;52.588;13.370;2023-06-22T14:48:26;5.47;;;4.97;;
9771;SDS011;4925;52.588;13.370;2023-06-22T14:50:53;5.68;;;5.25;;
9771;SDS011;4925;52.588;13.370;2023-06-22T14:53:19;6.53;;;5.20;;
9771;SDS011;4925;52.588;13.370;2023-06-22T14:55:44;5.68;;;5.20;;
9771;SDS011;4925;52.588;13.370;2023-06-22T14:58:10;7.47;;;4.65;;
9771;SDS011;4925;52.588;13.370;2023-06-22T15:00:36;5.22;;;4.72;;
9771;SDS011;4925;52.588;13.370;2023-06-22T15:03:03;4.78;;;4.32;;
9771;SDS011;4925;52.588;13.370;2023-06-22T15:05:31;6.63;;;5.25;;
9771;SDS011;4925;52.588;13.370;2023-06-22T15:07:57;4.80;;;4.50;;